Terminal Aerodrome Forecast
Issued by NWS Paducah, KY

Home | Current Version | Previous Version | Text Only | Print | Product List | Glossary On
Versions: 1 2 3 4 5 6 7 8 9 10 11 12 13 14 15 16 17 18 19 20 21 22 23 24
000
FTUS43 KPAH 032337
TAFPAH
TAF
KPAH 032337Z 0400/0424 27004KT P6SM BKN150
     FM040200 00000KT P6SM FEW035
     FM040800 00000KT 6SM BR SKC
      TEMPO 0409/0413 4SM BR SCT002 SCT015
     FM041400 VRB04KT P6SM SCT040=

USA.gov is the U.S. government's official web portal to all federal, state and local government web resources and services.